createdAt,value
2023-01-22T00:02:21.453Z,3.97
2023-01-22T00:04:50.940Z,2.40
2023-01-22T00:07:21.625Z,4.35
2023-01-22T00:09:50.704Z,3.70
2023-01-22T00:12:19.832Z,4.45
2023-01-22T00:14:49.937Z,3.55
2023-01-22T00:17:19.213Z,4.10
2023-01-22T00:19:48.419Z,3.40
2023-01-22T00:22:17.711Z,3.50
2023-01-22T00:24:48.291Z,4.43
2023-01-22T00:27:17.434Z,3.80
2023-01-22T00:29:46.537Z,4.40
2023-01-22T00:32:15.857Z,5.28
2023-01-22T00:34:52.370Z,4.22
2023-01-22T00:37:21.810Z,3.88
2023-01-22T00:39:52.336Z,3.53
2023-01-22T00:42:23.388Z,4.10
2023-01-22T00:44:52.497Z,3.55
2023-01-22T00:47:21.717Z,4.13
2023-01-22T00:49:50.930Z,4.07
2023-01-22T00:52:20.082Z,3.67
2023-01-22T00:54:49.372Z,4.05
2023-01-22T00:57:22.005Z,5.22
2023-01-22T00:59:52.337Z,3.92
2023-01-22T01:02:21.810Z,4.20
2023-01-22T01:04:51.120Z,4.15
2023-01-22T01:07:20.397Z,3.25
2023-01-22T01:09:49.583Z,3.97
2023-01-22T01:12:20.443Z,4.75
2023-01-22T01:14:50.802Z,4.20
2023-01-22T01:17:19.895Z,4.57
2023-01-22T01:19:49.069Z,3.53
2023-01-22T01:22:18.175Z,4.13
2023-01-22T01:24:47.505Z,4.05
2023-01-22T01:27:19.300Z,4.03
2023-01-22T01:29:48.532Z,3.47
2023-01-22T01:32:17.729Z,4.65
2023-01-22T01:34:48.076Z,3.67
2023-01-22T01:37:17.449Z,2.90
2023-01-22T01:39:48.058Z,3.40
2023-01-22T01:42:22.441Z,3.33
2023-01-22T01:45:44.085Z,4.47
2023-01-22T01:48:32.954Z,3.22
2023-01-22T01:51:07.659Z,3.10
2023-01-22T01:53:37.764Z,3.60
2023-01-22T01:56:12.601Z,4.50
2023-01-22T01:58:44.065Z,3.58
2023-01-22T02:01:16.592Z,3.05
2023-01-22T02:03:48.763Z,3.60
2023-01-22T02:06:20.245Z,4.05
2023-01-22T02:08:51.579Z,3.00
2023-01-22T02:11:22.189Z,3.13
2023-01-22T02:13:55.206Z,3.80
2023-01-22T02:16:24.613Z,3.17
2023-01-22T02:18:55.363Z,3.42
2023-01-22T02:21:36.955Z,4.07
2023-01-22T02:24:08.188Z,3.47
2023-01-22T02:26:38.212Z,3.72
2023-01-22T02:29:08.164Z,4.30
2023-01-22T02:31:39.192Z,3.97
2023-01-22T02:34:10.198Z,3.10
2023-01-22T02:36:41.786Z,3.45
2023-01-22T02:39:11.262Z,3.90
2023-01-22T02:41:40.728Z,4.05
2023-01-22T02:44:13.075Z,3.35
2023-01-22T02:46:44.132Z,3.70
2023-01-22T02:49:13.967Z,3.05
2023-01-22T02:51:44.807Z,3.53
2023-01-22T02:54:14.453Z,2.95
2023-01-22T02:56:43.896Z,3.15
2023-01-22T02:59:13.225Z,2.17
2023-01-22T03:01:42.465Z,3.00
2023-01-22T03:04:11.961Z,3.15
2023-01-22T03:06:42.648Z,3.47
2023-01-22T03:09:15.260Z,4.15
2023-01-22T03:11:49.616Z,2.85
2023-01-22T03:14:43.813Z,2.47
2023-01-22T03:17:30.384Z,2.30
2023-01-22T03:20:19.151Z,2.60
2023-01-22T03:22:49.918Z,3.22
2023-01-22T03:25:20.612Z,2.60
2023-01-22T03:28:07.840Z,2.65
2023-01-22T03:30:39.893Z,2.40
2023-01-22T03:33:10.172Z,2.70
2023-01-22T03:35:39.927Z,2.72
2023-01-22T03:38:17.564Z,2.85
2023-01-22T03:40:48.342Z,2.22
2023-01-22T03:43:17.600Z,3.45
2023-01-22T03:45:46.941Z,4.05
2023-01-22T03:48:18.405Z,3.05
2023-01-22T03:50:49.478Z,2.55
2023-01-22T03:53:18.761Z,3.78
2023-01-22T03:55:57.497Z,4.35
2023-01-22T03:58:26.941Z,3.30
2023-01-22T04:00:57.973Z,3.95
2023-01-22T04:03:28.997Z,3.20
2023-01-22T04:06:00.518Z,2.88
2023-01-22T04:08:31.727Z,3.42
2023-01-22T04:11:03.525Z,3.85
2023-01-22T04:13:34.554Z,3.88
2023-01-22T04:16:05.154Z,3.20
2023-01-22T04:18:54.254Z,3.25
2023-01-22T04:21:35.755Z,3.25
2023-01-22T04:24:08.765Z,3.70
2023-01-22T04:26:39.490Z,3.80
2023-01-22T04:29:10.042Z,3.30
2023-01-22T04:31:39.272Z,4.97
2023-01-22T04:34:17.311Z,3.30
2023-01-22T04:36:51.652Z,4.43
2023-01-22T04:39:20.896Z,3.90
2023-01-22T04:41:51.637Z,4.32
2023-01-22T04:44:21.627Z,3.97
2023-01-22T04:46:51.527Z,3.80
2023-01-22T04:49:20.688Z,3.92
2023-01-22T04:51:54.222Z,3.90
2023-01-22T04:54:23.577Z,3.70
2023-01-22T04:56:54.167Z,4.13
2023-01-22T04:59:23.458Z,4.65
2023-01-22T05:01:52.992Z,4.97
2023-01-22T05:04:24.173Z,4.72
2023-01-22T05:06:53.628Z,4.47
2023-01-22T05:09:24.675Z,3.95
2023-01-22T05:11:57.612Z,5.00
2023-01-22T05:14:27.882Z,4.15
2023-01-22T05:16:57.383Z,4.55
2023-01-22T05:19:26.506Z,4.85
2023-01-22T05:21:55.641Z,4.80
2023-01-22T05:24:25.195Z,5.75
2023-01-22T05:26:56.405Z,4.20
2023-01-22T05:29:35.718Z,4.60
2023-01-22T05:32:19.816Z,4.90
2023-01-22T05:34:55.315Z,4.65
2023-01-22T05:37:24.515Z,4.28
2023-01-22T05:39:53.921Z,4.88
2023-01-22T05:42:24.527Z,4.32
2023-01-22T05:44:53.682Z,4.88
2023-01-22T05:47:26.151Z,5.75
2023-01-22T05:50:19.656Z,4.25
2023-01-22T05:52:49.101Z,5.18
2023-01-22T05:55:18.816Z,4.15
2023-01-22T05:57:50.232Z,4.85
2023-01-22T06:00:23.969Z,5.28
2023-01-22T06:03:00.092Z,4.70
2023-01-22T06:05:31.699Z,5.00
2023-01-22T06:08:07.175Z,3.92
2023-01-22T06:10:43.902Z,5.57
2023-01-22T06:13:14.552Z,4.22
2023-01-22T06:15:45.546Z,5.10
2023-01-22T06:18:35.664Z,5.32
2023-01-22T06:21:09.065Z,5.22
2023-01-22T06:23:38.343Z,5.97
2023-01-22T06:26:09.074Z,4.65
2023-01-22T06:28:39.730Z,5.55
2023-01-22T06:31:09.155Z,5.35
2023-01-22T06:33:41.277Z,4.93
2023-01-22T06:36:11.087Z,6.28
2023-01-22T06:38:40.545Z,5.25
2023-01-22T06:41:11.651Z,6.10
2023-01-22T06:43:42.253Z,5.00
2023-01-22T06:46:11.878Z,5.82
2023-01-22T06:49:13.712Z,5.50
2023-01-22T06:51:42.977Z,5.82
2023-01-22T06:54:14.879Z,4.63
2023-01-22T06:56:44.120Z,5.55
2023-01-22T06:59:16.667Z,5.43
2023-01-22T07:01:45.821Z,5.18
2023-01-22T07:04:14.941Z,6.22
2023-01-22T07:06:44.133Z,6.25
2023-01-22T07:09:13.291Z,5.80
2023-01-22T07:11:42.524Z,5.10
2023-01-22T07:14:11.754Z,5.70
2023-01-22T07:17:09.560Z,6.05
2023-01-22T07:19:38.708Z,6.25
2023-01-22T07:22:07.995Z,6.43
2023-01-22T07:24:37.155Z,6.32
2023-01-22T07:27:06.522Z,5.28
2023-01-22T07:29:35.885Z,5.13
2023-01-22T07:32:05.169Z,6.25
2023-01-22T07:34:37.531Z,6.60
2023-01-22T07:37:06.753Z,5.88
2023-01-22T07:39:36.808Z,6.38
2023-01-22T07:42:06.160Z,6.88
2023-01-22T07:44:37.119Z,5.35
2023-01-22T07:47:06.367Z,6.75
2023-01-22T07:49:37.340Z,5.25
2023-01-22T07:52:06.851Z,6.20
2023-01-22T07:54:36.692Z,5.93
2023-01-22T07:57:06.466Z,5.90
2023-01-22T07:59:37.660Z,5.50
2023-01-22T08:02:06.910Z,6.70
2023-01-22T08:04:37.576Z,6.47
2023-01-22T08:07:06.753Z,6.68
2023-01-22T08:09:38.404Z,6.50
2023-01-22T08:12:07.783Z,6.28
2023-01-22T08:14:37.101Z,6.43
2023-01-22T08:17:06.336Z,6.15
2023-01-22T08:19:37.010Z,5.65
2023-01-22T08:22:07.090Z,6.78
2023-01-22T08:24:36.596Z,6.05
2023-01-22T08:27:05.968Z,5.90
2023-01-22T08:29:35.210Z,6.60
2023-01-22T08:32:04.727Z,5.63
2023-01-22T08:34:33.987Z,6.60
2023-01-22T08:37:04.813Z,5.28
2023-01-22T08:39:34.344Z,6.20
2023-01-22T08:42:04.697Z,6.80
2023-01-22T08:44:33.891Z,5.32
2023-01-22T08:47:03.172Z,6.30
2023-01-22T08:49:32.311Z,6.00
2023-01-22T08:52:01.637Z,6.47
2023-01-22T08:54:32.229Z,5.50
2023-01-22T08:57:01.393Z,7.13
2023-01-22T08:59:31.166Z,7.13
2023-01-22T09:02:00.666Z,7.70
2023-01-22T09:04:30.250Z,6.18
2023-01-22T09:06:59.651Z,6.90
2023-01-22T09:09:30.512Z,7.55
2023-01-22T09:11:59.726Z,7.07
2023-01-22T09:14:28.883Z,6.45
2023-01-22T09:16:58.144Z,6.03
2023-01-22T09:19:27.463Z,7.18
2023-01-22T09:21:56.692Z,6.53
2023-01-22T09:24:25.849Z,7.28
2023-01-22T09:26:56.511Z,7.75
2023-01-22T09:29:25.702Z,7.15
2023-01-22T09:31:55.128Z,7.70
2023-01-22T09:34:24.278Z,8.77
2023-01-22T09:36:53.668Z,7.47
2023-01-22T09:39:22.874Z,7.35
2023-01-22T09:41:56.768Z,6.50
2023-01-22T09:44:33.638Z,6.20
2023-01-22T09:47:07.879Z,8.07
2023-01-22T09:49:45.119Z,5.80
2023-01-22T09:52:14.360Z,8.32
2023-01-22T09:54:43.921Z,6.93
2023-01-22T09:57:30.791Z,8.85
2023-01-22T10:00:00.729Z,7.38
2023-01-22T10:02:36.029Z,8.75
2023-01-22T10:05:21.504Z,8.00
2023-01-22T10:07:55.736Z,8.05
2023-01-22T10:10:53.665Z,7.50
2023-01-22T10:13:25.750Z,7.35
2023-01-22T10:15:56.678Z,7.55
2023-01-22T10:18:34.763Z,6.38
2023-01-22T10:21:07.566Z,6.00
2023-01-22T10:23:36.952Z,7.38
2023-01-22T10:26:18.178Z,7.55
2023-01-22T10:28:52.074Z,7.15
2023-01-22T10:31:27.804Z,7.20
2023-01-22T10:34:01.552Z,8.40
2023-01-22T10:36:31.992Z,7.47
2023-01-22T10:39:14.207Z,7.80
2023-01-22T10:41:44.153Z,7.05
2023-01-22T10:44:22.740Z,7.57
2023-01-22T10:46:52.596Z,8.55
2023-01-22T10:49:24.471Z,7.60
2023-01-22T10:51:56.523Z,6.45
2023-01-22T10:54:31.386Z,7.65
2023-01-22T10:57:11.794Z,7.72
2023-01-22T10:59:49.191Z,6.95
2023-01-22T11:02:22.924Z,8.18
2023-01-22T11:04:52.590Z,7.60
2023-01-22T11:07:25.645Z,9.30
2023-01-22T11:10:10.520Z,7.95
2023-01-22T11:12:45.611Z,7.57
2023-01-22T11:15:23.499Z,8.55
2023-01-22T11:17:54.484Z,8.02
2023-01-22T11:20:27.472Z,7.43
2023-01-22T11:23:06.973Z,7.85
2023-01-22T11:25:43.401Z,9.25
2023-01-22T11:28:27.278Z,8.48
2023-01-22T11:31:30.815Z,8.65
2023-01-22T11:34:24.493Z,7.28
2023-01-22T11:37:02.043Z,9.02
2023-01-22T11:39:52.546Z,10.60
2023-01-22T11:42:33.373Z,7.10
2023-01-22T11:45:26.842Z,9.70
2023-01-22T11:48:15.632Z,9.13
2023-01-22T11:50:53.630Z,8.63
2023-01-22T11:53:44.613Z,10.27
2023-01-22T11:56:37.459Z,10.95
2023-01-22T11:59:13.036Z,9.32
2023-01-22T12:02:02.963Z,8.88
2023-01-22T12:04:59.408Z,10.75
2023-01-22T12:07:51.232Z,8.80
2023-01-22T12:11:06.342Z,7.57
2023-01-22T12:13:59.031Z,9.20
2023-01-22T12:16:33.021Z,9.38
2023-01-22T12:19:17.943Z,9.00
2023-01-22T12:21:59.248Z,9.32
2023-01-22T12:24:35.651Z,9.20
2023-01-22T12:27:11.139Z,10.25
2023-01-22T12:29:46.134Z,10.32
2023-01-22T12:32:19.751Z,8.90
2023-01-22T12:34:54.445Z,7.05
2023-01-22T12:37:32.181Z,8.13
2023-01-22T12:40:21.894Z,10.95
2023-01-22T12:43:03.065Z,9.88
2023-01-22T12:45:44.680Z,7.82
2023-01-22T12:48:28.147Z,8.18
2023-01-22T12:51:01.765Z,9.55
2023-01-22T12:53:36.630Z,9.13
2023-01-22T12:56:09.717Z,8.85
2023-01-22T12:58:46.016Z,11.50
2023-01-22T13:01:27.565Z,12.07
2023-01-22T13:04:03.818Z,11.07
2023-01-22T13:06:38.209Z,10.65
2023-01-22T13:09:27.813Z,10.57
2023-01-22T13:12:09.556Z,10.27
2023-01-22T13:14:44.415Z,9.23
2023-01-22T13:17:23.632Z,10.75
2023-01-22T13:20:00.133Z,11.75
2023-01-22T13:22:34.267Z,12.32
2023-01-22T13:25:06.429Z,11.35
2023-01-22T13:27:39.613Z,12.30
2023-01-22T13:30:16.524Z,11.25
2023-01-22T13:33:41.695Z,10.05
2023-01-22T13:36:17.278Z,14.05
2023-01-22T13:38:55.297Z,11.27
2023-01-22T13:41:37.170Z,9.75
2023-01-22T13:44:09.878Z,11.63
2023-01-22T13:46:41.911Z,11.60
2023-01-22T13:49:28.212Z,12.23
2023-01-22T13:52:06.837Z,11.90
2023-01-22T13:54:43.669Z,11.45
2023-01-22T13:57:21.834Z,12.35
2023-01-22T14:00:01.242Z,12.35
2023-01-22T14:02:35.962Z,11.93
2023-01-22T14:05:08.323Z,10.40
2023-01-22T14:07:41.856Z,10.07
2023-01-22T14:10:19.329Z,12.38
2023-01-22T14:13:02.378Z,14.63
2023-01-22T14:15:33.646Z,11.27
2023-01-22T14:18:19.296Z,14.32
2023-01-22T14:20:54.825Z,13.05
2023-01-22T14:23:26.810Z,14.75
2023-01-22T14:26:00.525Z,10.55
2023-01-22T14:28:33.998Z,12.88
2023-01-22T14:31:07.685Z,12.48
2023-01-22T14:33:39.244Z,12.77
2023-01-22T14:36:13.075Z,11.85
2023-01-22T14:38:45.902Z,13.57
2023-01-22T14:41:16.465Z,12.43
2023-01-22T14:44:11.322Z,13.55
2023-01-22T14:46:44.242Z,11.25
2023-01-22T14:49:17.405Z,12.55
2023-01-22T14:51:50.014Z,12.20
2023-01-22T14:54:22.825Z,13.07
2023-01-22T14:56:54.651Z,12.15
2023-01-22T14:59:28.096Z,12.23
2023-01-22T15:01:59.051Z,10.73
2023-01-22T15:04:30.575Z,12.07
2023-01-22T15:07:02.713Z,11.70
2023-01-22T15:09:41.625Z,14.77
2023-01-22T15:12:12.953Z,14.13
2023-01-22T15:14:48.452Z,14.18
2023-01-22T15:17:22.111Z,11.68
2023-01-22T15:19:53.995Z,11.88
2023-01-22T15:22:26.749Z,13.73
2023-01-22T15:24:57.131Z,14.25
2023-01-22T15:27:28.963Z,13.90
2023-01-22T15:30:07.355Z,12.13
2023-01-22T15:32:38.197Z,13.25
2023-01-22T15:35:10.310Z,13.70
2023-01-22T15:37:42.884Z,12.40
2023-01-22T15:40:17.037Z,14.00
2023-01-22T15:42:50.458Z,14.35
2023-01-22T15:45:27.519Z,15.05
2023-01-22T15:47:59.333Z,14.27
2023-01-22T15:50:30.761Z,14.68
2023-01-22T15:53:02.954Z,14.32
2023-01-22T15:55:34.565Z,14.32
2023-01-22T15:59:22.960Z,15.27
2023-01-22T16:01:56.402Z,16.65
2023-01-22T16:04:27.803Z,14.90
2023-01-22T16:07:00.971Z,12.30
2023-01-22T16:09:33.000Z,14.10
2023-01-22T16:12:04.946Z,13.70
2023-01-22T16:14:36.465Z,13.77
2023-01-22T16:17:11.933Z,15.90
2023-01-22T16:19:45.031Z,12.05
2023-01-22T16:22:15.566Z,13.02
2023-01-22T16:24:46.911Z,13.98
2023-01-22T16:27:17.944Z,13.88
2023-01-22T16:29:52.657Z,13.77
2023-01-22T16:32:25.636Z,13.10
2023-01-22T16:35:02.840Z,13.65
2023-01-22T16:37:34.818Z,14.55
2023-01-22T16:40:15.005Z,12.30
2023-01-22T16:43:00.555Z,12.73
2023-01-22T16:45:31.595Z,14.30
2023-01-22T16:48:11.064Z,13.95
2023-01-22T16:50:42.892Z,12.98
2023-01-22T16:53:12.886Z,13.95
2023-01-22T16:55:45.284Z,13.25
2023-01-22T16:58:19.288Z,12.18
2023-01-22T17:00:50.816Z,12.43
2023-01-22T17:03:22.896Z,14.10
2023-01-22T17:06:11.028Z,12.60
2023-01-22T17:08:42.205Z,13.20
2023-01-22T17:11:18.700Z,12.70
2023-01-22T17:13:51.052Z,13.73
2023-01-22T17:16:25.352Z,12.52
2023-01-22T17:19:00.710Z,14.00
2023-01-22T17:21:33.164Z,13.70
2023-01-22T17:24:08.777Z,12.02
2023-01-22T17:26:39.920Z,13.70
2023-01-22T17:29:14.655Z,13.35
2023-01-22T17:31:48.705Z,13.40
2023-01-22T17:34:24.727Z,14.27
2023-01-22T17:36:57.946Z,13.45
2023-01-22T17:39:29.366Z,16.55
2023-01-22T17:42:00.365Z,14.30
2023-01-22T17:44:35.335Z,13.30
2023-01-22T17:47:06.492Z,11.35
2023-01-22T17:49:46.343Z,14.63
2023-01-22T17:52:18.352Z,11.88
2023-01-22T17:54:49.239Z,13.77
2023-01-22T17:57:27.861Z,13.68
2023-01-22T17:59:58.952Z,13.10
2023-01-22T18:02:29.613Z,13.55
2023-01-22T18:05:02.034Z,13.00
2023-01-22T18:07:33.732Z,12.73
2023-01-22T18:11:00.131Z,12.10
2023-01-22T18:13:35.078Z,12.48
2023-01-22T18:16:08.724Z,13.40
2023-01-22T18:18:41.274Z,12.05
2023-01-22T18:21:17.088Z,14.32
2023-01-22T18:23:48.937Z,14.80
2023-01-22T18:26:27.383Z,13.90
2023-01-22T18:28:59.767Z,14.23
2023-01-22T18:31:32.713Z,11.65
2023-01-22T18:34:06.128Z,12.85
2023-01-22T18:36:40.152Z,13.63
2023-01-22T18:39:14.003Z,17.00
2023-01-22T18:41:47.324Z,15.60
2023-01-22T18:44:20.425Z,14.45
2023-01-22T18:46:53.916Z,13.13
2023-01-22T18:49:26.107Z,13.77
2023-01-22T18:52:01.500Z,14.10
2023-01-22T18:54:33.421Z,13.15
2023-01-22T18:57:05.574Z,13.73
2023-01-22T18:59:38.054Z,14.40
2023-01-22T19:02:14.500Z,13.25
2023-01-22T19:04:47.755Z,11.10
2023-01-22T19:07:22.357Z,11.77
2023-01-22T19:09:54.801Z,12.55
2023-01-22T19:12:25.765Z,14.57
2023-01-22T19:14:56.011Z,13.88
2023-01-22T19:17:28.816Z,13.20
2023-01-22T19:20:01.089Z,13.40
2023-01-22T19:22:33.434Z,13.20
2023-01-22T19:25:06.909Z,13.43
2023-01-22T19:27:37.771Z,13.38
2023-01-22T19:30:11.643Z,15.90
2023-01-22T19:32:45.487Z,16.25
2023-01-22T19:35:16.222Z,14.32
2023-01-22T19:37:49.479Z,14.95
2023-01-22T19:40:23.900Z,14.98
2023-01-22T19:43:51.436Z,14.75
2023-01-22T19:46:22.853Z,14.20
2023-01-22T19:48:55.922Z,13.70
2023-01-22T19:51:27.903Z,13.57
2023-01-22T19:54:03.140Z,14.60
2023-01-22T19:56:37.173Z,12.45
2023-01-22T19:59:13.026Z,13.82
2023-01-22T20:01:47.321Z,14.07
2023-01-22T20:04:24.387Z,13.38
2023-01-22T20:07:00.354Z,13.43
2023-01-22T20:09:37.826Z,14.20
2023-01-22T20:12:14.121Z,12.35
2023-01-22T20:14:46.119Z,13.30
2023-01-22T20:17:17.445Z,13.05
2023-01-22T20:19:48.051Z,14.35
2023-01-22T20:22:21.247Z,14.23
2023-01-22T20:24:54.787Z,11.75
2023-01-22T20:27:57.924Z,12.68
2023-01-22T20:30:34.013Z,13.60
2023-01-22T20:33:05.823Z,11.90
2023-01-22T20:35:45.196Z,13.93
2023-01-22T20:38:21.169Z,12.32
2023-01-22T20:41:46.233Z,12.52
2023-01-22T20:44:19.862Z,11.77
2023-01-22T20:46:50.328Z,13.32
2023-01-22T20:49:22.043Z,14.20
2023-01-22T20:51:52.615Z,14.82
2023-01-22T20:54:25.800Z,12.10
2023-01-22T20:57:03.673Z,13.27
2023-01-22T20:59:39.743Z,11.93
2023-01-22T21:02:13.459Z,12.68
2023-01-22T21:04:44.314Z,11.95
2023-01-22T21:07:15.000Z,11.23
2023-01-22T21:09:45.762Z,13.35
2023-01-22T21:16:42.673Z,12.88
2023-01-22T21:19:18.387Z,12.02
2023-01-22T21:21:51.104Z,15.30
2023-01-22T21:24:22.607Z,12.13
2023-01-22T21:26:53.018Z,12.30
2023-01-22T21:29:30.399Z,13.45
2023-01-22T21:32:04.926Z,13.35
2023-01-22T21:34:37.144Z,12.55
2023-01-22T21:37:09.603Z,11.40
2023-01-22T21:39:46.451Z,13.13
2023-01-22T21:42:35.650Z,13.82
2023-01-22T21:45:23.826Z,11.15
2023-01-22T21:47:57.160Z,13.43
2023-01-22T21:50:29.229Z,13.73
2023-01-22T21:52:59.944Z,15.27
2023-01-22T21:55:34.588Z,12.88
2023-01-22T21:58:08.792Z,12.43
2023-01-22T22:00:40.954Z,11.60
2023-01-22T22:03:19.456Z,11.55
2023-01-22T22:06:02.090Z,12.55
2023-01-22T22:08:36.725Z,13.68
2023-01-22T22:11:09.871Z,12.57
2023-01-22T22:13:40.977Z,12.13
2023-01-22T22:16:14.489Z,12.43
2023-01-22T22:18:46.541Z,10.90
2023-01-22T22:21:17.208Z,12.98
2023-01-22T22:23:52.958Z,13.10
2023-01-22T22:26:25.471Z,12.50
2023-01-22T22:28:55.993Z,11.88
2023-01-22T22:31:27.422Z,13.32
2023-01-22T22:34:01.137Z,15.40
2023-01-22T22:36:33.363Z,12.85
2023-01-22T22:39:07.160Z,12.75
2023-01-22T22:41:39.639Z,14.38
2023-01-22T22:44:12.073Z,13.95
2023-01-22T22:46:43.040Z,11.68
2023-01-22T22:49:17.520Z,12.90
2023-01-22T22:51:50.119Z,11.60
2023-01-22T22:54:23.047Z,10.95
2023-01-22T22:56:54.420Z,12.00
2023-01-22T22:59:25.823Z,12.55
2023-01-22T23:02:02.889Z,12.10
2023-01-22T23:04:38.335Z,12.90
2023-01-22T23:07:09.037Z,12.65
2023-01-22T23:09:41.604Z,14.35
2023-01-22T23:12:21.020Z,12.98
2023-01-22T23:14:52.049Z,13.32
2023-01-22T23:17:23.089Z,13.98
2023-01-22T23:19:59.955Z,14.50
2023-01-22T23:22:32.382Z,13.15
2023-01-22T23:25:03.492Z,13.00
2023-01-22T23:27:37.904Z,12.20
2023-01-22T23:30:09.581Z,11.63
2023-01-22T23:32:40.967Z,11.10
2023-01-22T23:35:15.543Z,13.65
2023-01-22T23:37:47.449Z,13.20
2023-01-22T23:40:19.818Z,12.48
2023-01-22T23:42:53.776Z,11.52
2023-01-22T23:45:30.891Z,13.05
2023-01-22T23:48:02.404Z,10.75
2023-01-22T23:50:36.538Z,12.85
2023-01-22T23:53:15.750Z,14.57
2023-01-22T23:55:46.567Z,14.32
2023-01-22T23:58:25.289Z,12.35
